Terminal Aerodrome Forecast
Issued by NWS Mt. Holly, NJ

Home | Current Version | Previous Version | Text Only | Print | Product List | Glossary On
Versions: 1 2 3 4 5 6 7 8 9 10 11 12 13 14 15 16 17 18 19 20
318
FTUS41 KPHI 261120
TAFACY
TAF
KACY 261120Z 2612/2712 07012G22KT P6SM BKN010 OVC020
     FM261400 07012KT 5SM -DZ BR OVC008
     FM261800 09012KT 3SM BR OVC005
     FM270300 13010KT 4SM -SHRA BR OVC003=

USA.gov is the U.S. government's official web portal to all federal, state and local government web resources and services.